sensor_id;sensor_type;location;lat;lon;timestamp;pressure;altitude;pressure_sealevel;temperature
5571;BMP180;2808;51.240;6.794;2022-07-23T00:01:01;101305.00;;;17.70
5571;BMP180;2808;51.240;6.794;2022-07-23T00:07:07;101305.00;;;17.80
5571;BMP180;2808;51.240;6.794;2022-07-23T00:09:41;101303.00;;;17.80
5571;BMP180;2808;51.240;6.794;2022-07-23T00:19:04;101319.00;;;17.90
5571;BMP180;2808;51.240;6.794;2022-07-23T00:24:38;101307.00;;;17.90
5571;BMP180;2808;51.240;6.794;2022-07-23T00:27:22;101303.00;;;17.90
5571;BMP180;2808;51.240;6.794;2022-07-23T00:29:49;101304.00;;;17.90
5571;BMP180;2808;51.240;6.794;2022-07-23T00:32:17;101295.00;;;17.90
5571;BMP180;2808;51.240;6.794;2022-07-23T00:34:46;101289.00;;;17.90
5571;BMP180;2808;51.240;6.794;2022-07-23T00:37:13;101293.00;;;17.80
5571;BMP180;2808;51.240;6.794;2022-07-23T00:39:41;101288.00;;;17.80
5571;BMP180;2808;51.240;6.794;2022-07-23T00:42:08;101285.00;;;17.80
5571;BMP180;2808;51.240;6.794;2022-07-23T00:44:35;101292.00;;;17.80
5571;BMP180;2808;51.240;6.794;2022-07-23T00:47:03;101291.00;;;17.80
5571;BMP180;2808;51.240;6.794;2022-07-23T00:49:32;101287.00;;;17.80
5571;BMP180;2808;51.240;6.794;2022-07-23T00:52:02;101295.00;;;17.80
5571;BMP180;2808;51.240;6.794;2022-07-23T00:54:30;101298.00;;;17.90
5571;BMP180;2808;51.240;6.794;2022-07-23T00:56:57;101303.00;;;17.80
5571;BMP180;2808;51.240;6.794;2022-07-23T00:59:24;101308.00;;;17.90
5571;BMP180;2808;51.240;6.794;2022-07-23T01:01:52;101313.00;;;18.00
5571;BMP180;2808;51.240;6.794;2022-07-23T01:04:20;101309.00;;;18.00
5571;BMP180;2808;51.240;6.794;2022-07-23T01:06:47;101317.00;;;18.00
5571;BMP180;2808;51.240;6.794;2022-07-23T01:09:17;101313.00;;;18.00
5571;BMP180;2808;51.240;6.794;2022-07-23T01:11:44;101312.00;;;18.00
5571;BMP180;2808;51.240;6.794;2022-07-23T01:14:13;101306.00;;;18.00
5571;BMP180;2808;51.240;6.794;2022-07-23T01:16:41;101311.00;;;18.00
5571;BMP180;2808;51.240;6.794;2022-07-23T01:19:09;101314.00;;;18.00
5571;BMP180;2808;51.240;6.794;2022-07-23T01:21:38;101314.00;;;18.00
5571;BMP180;2808;51.240;6.794;2022-07-23T01:24:09;101300.00;;;18.00
5571;BMP180;2808;51.240;6.794;2022-07-23T01:26:36;101308.00;;;18.00
5571;BMP180;2808;51.240;6.794;2022-07-23T01:29:04;101302.00;;;18.00
5571;BMP180;2808;51.240;6.794;2022-07-23T01:31:32;101306.00;;;18.10
5571;BMP180;2808;51.240;6.794;2022-07-23T01:34:00;101311.00;;;18.10
5571;BMP180;2808;51.240;6.794;2022-07-23T01:36:27;101311.00;;;18.10
5571;BMP180;2808;51.240;6.794;2022-07-23T01:38:55;101307.00;;;18.10
5571;BMP180;2808;51.240;6.794;2022-07-23T01:41:24;101300.00;;;18.10
5571;BMP180;2808;51.240;6.794;2022-07-23T01:43:51;101294.00;;;18.10
5571;BMP180;2808;51.240;6.794;2022-07-23T01:46:19;101297.00;;;18.10
5571;BMP180;2808;51.240;6.794;2022-07-23T01:48:46;101291.00;;;18.00
5571;BMP180;2808;51.240;6.794;2022-07-23T01:51:14;101294.00;;;18.00
5571;BMP180;2808;51.240;6.794;2022-07-23T01:53:41;101290.00;;;18.00
5571;BMP180;2808;51.240;6.794;2022-07-23T01:56:09;101294.00;;;18.00
5571;BMP180;2808;51.240;6.794;2022-07-23T01:58:38;101289.00;;;18.00
5571;BMP180;2808;51.240;6.794;2022-07-23T02:01:05;101295.00;;;17.90
5571;BMP180;2808;51.240;6.794;2022-07-23T02:03:33;101295.00;;;17.90
5571;BMP180;2808;51.240;6.794;2022-07-23T02:06:00;101292.00;;;17.90
5571;BMP180;2808;51.240;6.794;2022-07-23T02:08:27;101298.00;;;17.80
5571;BMP180;2808;51.240;6.794;2022-07-23T02:10:55;101289.00;;;17.80
5571;BMP180;2808;51.240;6.794;2022-07-23T02:13:22;101295.00;;;17.70
5571;BMP180;2808;51.240;6.794;2022-07-23T02:15:52;101288.00;;;17.70
5571;BMP180;2808;51.240;6.794;2022-07-23T02:18:19;101294.00;;;17.60
5571;BMP180;2808;51.240;6.794;2022-07-23T02:20:47;101280.00;;;17.60
5571;BMP180;2808;51.240;6.794;2022-07-23T02:23:14;101278.00;;;17.60
5571;BMP180;2808;51.240;6.794;2022-07-23T02:25:42;101282.00;;;17.60
5571;BMP180;2808;51.240;6.794;2022-07-23T02:28:09;101281.00;;;17.60
5571;BMP180;2808;51.240;6.794;2022-07-23T02:30:37;101277.00;;;17.60
5571;BMP180;2808;51.240;6.794;2022-07-23T02:33:06;101280.00;;;17.60
5571;BMP180;2808;51.240;6.794;2022-07-23T02:35:34;101276.00;;;17.50
5571;BMP180;2808;51.240;6.794;2022-07-23T02:38:01;101280.00;;;17.40
5571;BMP180;2808;51.240;6.794;2022-07-23T02:40:29;101284.00;;;17.40
5571;BMP180;2808;51.240;6.794;2022-07-23T02:42:56;101285.00;;;17.40
5571;BMP180;2808;51.240;6.794;2022-07-23T02:45:26;101285.00;;;17.40
5571;BMP180;2808;51.240;6.794;2022-07-23T02:47:53;101289.00;;;17.40
5571;BMP180;2808;51.240;6.794;2022-07-23T02:50:22;101293.00;;;17.40
5571;BMP180;2808;51.240;6.794;2022-07-23T02:52:50;101291.00;;;17.40
5571;BMP180;2808;51.240;6.794;2022-07-23T02:55:17;101286.00;;;17.30
5571;BMP180;2808;51.240;6.794;2022-07-23T02:57:45;101287.00;;;17.30
5571;BMP180;2808;51.240;6.794;2022-07-23T03:00:13;101292.00;;;17.20
5571;BMP180;2808;51.240;6.794;2022-07-23T03:02:40;101290.00;;;17.20
5571;BMP180;2808;51.240;6.794;2022-07-23T03:05:08;101287.00;;;17.10
5571;BMP180;2808;51.240;6.794;2022-07-23T03:07:37;101282.00;;;17.10
5571;BMP180;2808;51.240;6.794;2022-07-23T03:10:05;101273.00;;;17.10
5571;BMP180;2808;51.240;6.794;2022-07-23T03:12:33;101285.00;;;17.10
5571;BMP180;2808;51.240;6.794;2022-07-23T03:15:01;101285.00;;;17.10
5571;BMP180;2808;51.240;6.794;2022-07-23T03:17:28;101288.00;;;17.10
5571;BMP180;2808;51.240;6.794;2022-07-23T03:19:56;101287.00;;;17.10
5571;BMP180;2808;51.240;6.794;2022-07-23T03:22:23;101288.00;;;17.10
5571;BMP180;2808;51.240;6.794;2022-07-23T03:24:52;101293.00;;;17.10
5571;BMP180;2808;51.240;6.794;2022-07-23T03:27:23;101290.00;;;17.00
5571;BMP180;2808;51.240;6.794;2022-07-23T03:29:52;101283.00;;;17.00
5571;BMP180;2808;51.240;6.794;2022-07-23T03:32:20;101287.00;;;17.10
5571;BMP180;2808;51.240;6.794;2022-07-23T03:34:48;101285.00;;;17.00
5571;BMP180;2808;51.240;6.794;2022-07-23T03:37:15;101293.00;;;17.00
5571;BMP180;2808;51.240;6.794;2022-07-23T03:39:43;101295.00;;;17.10
5571;BMP180;2808;51.240;6.794;2022-07-23T03:42:12;101293.00;;;17.10
5571;BMP180;2808;51.240;6.794;2022-07-23T03:44:41;101287.00;;;17.10
5571;BMP180;2808;51.240;6.794;2022-07-23T03:47:09;101293.00;;;17.10
5571;BMP180;2808;51.240;6.794;2022-07-23T03:49:36;101284.00;;;17.10
5571;BMP180;2808;51.240;6.794;2022-07-23T03:52:04;101287.00;;;17.10
5571;BMP180;2808;51.240;6.794;2022-07-23T03:54:32;101286.00;;;17.00
5571;BMP180;2808;51.240;6.794;2022-07-23T03:56:59;101274.00;;;17.00
5571;BMP180;2808;51.240;6.794;2022-07-23T03:59:28;101281.00;;;17.00
5571;BMP180;2808;51.240;6.794;2022-07-23T04:01:55;101282.00;;;17.00
5571;BMP180;2808;51.240;6.794;2022-07-23T04:04:23;101274.00;;;17.00
5571;BMP180;2808;51.240;6.794;2022-07-23T04:06:50;101280.00;;;17.00
5571;BMP180;2808;51.240;6.794;2022-07-23T04:09:18;101287.00;;;17.10
5571;BMP180;2808;51.240;6.794;2022-07-23T04:11:45;101289.00;;;17.10
5571;BMP180;2808;51.240;6.794;2022-07-23T04:14:14;101294.00;;;17.10
5571;BMP180;2808;51.240;6.794;2022-07-23T04:16:43;101306.00;;;17.20
5571;BMP180;2808;51.240;6.794;2022-07-23T04:19:10;101301.00;;;17.30
5571;BMP180;2808;51.240;6.794;2022-07-23T04:21:38;101297.00;;;17.30
5571;BMP180;2808;51.240;6.794;2022-07-23T04:24:06;101295.00;;;17.40
5571;BMP180;2808;51.240;6.794;2022-07-23T04:26:33;101288.00;;;17.60
5571;BMP180;2808;51.240;6.794;2022-07-23T04:29:01;101287.00;;;17.70
5571;BMP180;2808;51.240;6.794;2022-07-23T04:31:28;101298.00;;;17.80
5571;BMP180;2808;51.240;6.794;2022-07-23T04:33:57;101299.00;;;18.00
5571;BMP180;2808;51.240;6.794;2022-07-23T04:36:24;101299.00;;;18.20
5571;BMP180;2808;51.240;6.794;2022-07-23T04:38:53;101303.00;;;18.40
5571;BMP180;2808;51.240;6.794;2022-07-23T04:41:20;101302.00;;;18.60
5571;BMP180;2808;51.240;6.794;2022-07-23T04:43:48;101311.00;;;18.70
5571;BMP180;2808;51.240;6.794;2022-07-23T04:46:15;101315.00;;;19.00
5571;BMP180;2808;51.240;6.794;2022-07-23T04:48:46;101310.00;;;19.10
5571;BMP180;2808;51.240;6.794;2022-07-23T04:51:15;101312.00;;;19.20
5571;BMP180;2808;51.240;6.794;2022-07-23T04:53:43;101322.00;;;19.30
5571;BMP180;2808;51.240;6.794;2022-07-23T04:56:11;101320.00;;;19.50
5571;BMP180;2808;51.240;6.794;2022-07-23T04:58:38;101328.00;;;19.80
5571;BMP180;2808;51.240;6.794;2022-07-23T05:01:06;101331.00;;;20.00
5571;BMP180;2808;51.240;6.794;2022-07-23T05:03:33;101330.00;;;20.10
5571;BMP180;2808;51.240;6.794;2022-07-23T05:06:01;101332.00;;;20.20
5571;BMP180;2808;51.240;6.794;2022-07-23T05:08:32;101323.00;;;20.40
5571;BMP180;2808;51.240;6.794;2022-07-23T05:11:00;101337.00;;;20.50
5571;BMP180;2808;51.240;6.794;2022-07-23T05:13:29;101337.00;;;20.80
5571;BMP180;2808;51.240;6.794;2022-07-23T05:16:00;101334.00;;;21.10
5571;BMP180;2808;51.240;6.794;2022-07-23T05:18:27;101335.00;;;21.20
5571;BMP180;2808;51.240;6.794;2022-07-23T05:20:55;101343.00;;;21.50
5571;BMP180;2808;51.240;6.794;2022-07-23T05:23:22;101334.00;;;21.70
5571;BMP180;2808;51.240;6.794;2022-07-23T05:25:51;101341.00;;;21.90
5571;BMP180;2808;51.240;6.794;2022-07-23T05:28:19;101346.00;;;22.20
5571;BMP180;2808;51.240;6.794;2022-07-23T05:30:46;101345.00;;;22.70
5571;BMP180;2808;51.240;6.794;2022-07-23T05:33:13;101348.00;;;23.10
5571;BMP180;2808;51.240;6.794;2022-07-23T05:35:41;101346.00;;;23.50
5571;BMP180;2808;51.240;6.794;2022-07-23T05:38:08;101345.00;;;23.80
5571;BMP180;2808;51.240;6.794;2022-07-23T05:40:36;101343.00;;;24.00
5571;BMP180;2808;51.240;6.794;2022-07-23T05:43:05;101344.00;;;24.10
5571;BMP180;2808;51.240;6.794;2022-07-23T05:45:32;101342.00;;;24.10
5571;BMP180;2808;51.240;6.794;2022-07-23T05:48:00;101360.00;;;24.20
5571;BMP180;2808;51.240;6.794;2022-07-23T05:50:27;101352.00;;;24.40
5571;BMP180;2808;51.240;6.794;2022-07-23T05:52:55;101358.00;;;24.40
5571;BMP180;2808;51.240;6.794;2022-07-23T05:55:22;101363.00;;;24.40
5571;BMP180;2808;51.240;6.794;2022-07-23T05:57:50;101363.00;;;24.60
5571;BMP180;2808;51.240;6.794;2022-07-23T06:00:19;101366.00;;;24.50
5571;BMP180;2808;51.240;6.794;2022-07-23T06:02:46;101364.00;;;24.50
5571;BMP180;2808;51.240;6.794;2022-07-23T06:05:14;101376.00;;;24.50
5571;BMP180;2808;51.240;6.794;2022-07-23T06:07:42;101380.00;;;24.50
5571;BMP180;2808;51.240;6.794;2022-07-23T06:10:09;101385.00;;;24.60
5571;BMP180;2808;51.240;6.794;2022-07-23T06:12:37;101386.00;;;24.90
5571;BMP180;2808;51.240;6.794;2022-07-23T06:15:06;101382.00;;;25.10
5571;BMP180;2808;51.240;6.794;2022-07-23T06:17:38;101382.00;;;25.30
5571;BMP180;2808;51.240;6.794;2022-07-23T06:20:07;101375.00;;;25.20
5571;BMP180;2808;51.240;6.794;2022-07-23T06:22:35;101374.00;;;25.30
5571;BMP180;2808;51.240;6.794;2022-07-23T06:25:03;101383.00;;;25.20
5571;BMP180;2808;51.240;6.794;2022-07-23T06:27:30;101381.00;;;25.50
5571;BMP180;2808;51.240;6.794;2022-07-23T06:29:58;101380.00;;;25.50
5571;BMP180;2808;51.240;6.794;2022-07-23T06:32:25;101379.00;;;25.70
5571;BMP180;2808;51.240;6.794;2022-07-23T06:34:55;101386.00;;;25.90
5571;BMP180;2808;51.240;6.794;2022-07-23T06:37:22;101387.00;;;26.00
5571;BMP180;2808;51.240;6.794;2022-07-23T06:39:51;101392.00;;;26.30
5571;BMP180;2808;51.240;6.794;2022-07-23T06:42:19;101394.00;;;26.50
5571;BMP180;2808;51.240;6.794;2022-07-23T06:44:46;101397.00;;;26.40
5571;BMP180;2808;51.240;6.794;2022-07-23T06:47:14;101400.00;;;26.40
5571;BMP180;2808;51.240;6.794;2022-07-23T06:49:41;101392.00;;;26.60
5571;BMP180;2808;51.240;6.794;2022-07-23T06:52:10;101393.00;;;27.00
5571;BMP180;2808;51.240;6.794;2022-07-23T06:54:37;101396.00;;;27.20
5571;BMP180;2808;51.240;6.794;2022-07-23T06:57:05;101395.00;;;27.40
5571;BMP180;2808;51.240;6.794;2022-07-23T06:59:32;101394.00;;;27.50
5571;BMP180;2808;51.240;6.794;2022-07-23T07:02:02;101404.00;;;27.50
5571;BMP180;2808;51.240;6.794;2022-07-23T07:04:29;101398.00;;;27.60
5571;BMP180;2808;51.240;6.794;2022-07-23T07:06:58;101404.00;;;27.50
5571;BMP180;2808;51.240;6.794;2022-07-23T07:09:28;101405.00;;;27.50
5571;BMP180;2808;51.240;6.794;2022-07-23T07:11:56;101404.00;;;27.80
5571;BMP180;2808;51.240;6.794;2022-07-23T07:14:23;101412.00;;;27.90
5571;BMP180;2808;51.240;6.794;2022-07-23T07:16:51;101408.00;;;27.90
5571;BMP180;2808;51.240;6.794;2022-07-23T07:19:18;101413.00;;;28.00
5571;BMP180;2808;51.240;6.794;2022-07-23T07:21:46;101420.00;;;28.10
5571;BMP180;2808;51.240;6.794;2022-07-23T07:24:15;101415.00;;;28.20
5571;BMP180;2808;51.240;6.794;2022-07-23T07:26:44;101411.00;;;28.20
5571;BMP180;2808;51.240;6.794;2022-07-23T07:29:11;101420.00;;;28.50
5571;BMP180;2808;51.240;6.794;2022-07-23T07:31:38;101417.00;;;28.50
5571;BMP180;2808;51.240;6.794;2022-07-23T07:34:06;101415.00;;;27.90
5571;BMP180;2808;51.240;6.794;2022-07-23T07:36:33;101426.00;;;27.90
5571;BMP180;2808;51.240;6.794;2022-07-23T07:39:03;101428.00;;;28.10
5571;BMP180;2808;51.240;6.794;2022-07-23T07:41:31;101427.00;;;28.10
5571;BMP180;2808;51.240;6.794;2022-07-23T07:44:00;101434.00;;;27.70
5571;BMP180;2808;51.240;6.794;2022-07-23T07:46:27;101439.00;;;27.40
5571;BMP180;2808;51.240;6.794;2022-07-23T07:48:55;101441.00;;;26.90
5571;BMP180;2808;51.240;6.794;2022-07-23T07:51:22;101446.00;;;26.30
5571;BMP180;2808;51.240;6.794;2022-07-23T07:53:50;101433.00;;;26.00
5571;BMP180;2808;51.240;6.794;2022-07-23T07:56:17;101437.00;;;26.30
5571;BMP180;2808;51.240;6.794;2022-07-23T07:58:45;101441.00;;;26.10
5571;BMP180;2808;51.240;6.794;2022-07-23T08:01:14;101436.00;;;26.10
5571;BMP180;2808;51.240;6.794;2022-07-23T08:03:43;101438.00;;;26.30
5571;BMP180;2808;51.240;6.794;2022-07-23T08:06:10;101442.00;;;26.30
5571;BMP180;2808;51.240;6.794;2022-07-23T08:08:38;101446.00;;;26.50
5571;BMP180;2808;51.240;6.794;2022-07-23T08:11:05;101453.00;;;26.50
5571;BMP180;2808;51.240;6.794;2022-07-23T08:13:33;101447.00;;;26.70
5571;BMP180;2808;51.240;6.794;2022-07-23T08:16:01;101457.00;;;27.00
5571;BMP180;2808;51.240;6.794;2022-07-23T08:18:31;101453.00;;;27.10
5571;BMP180;2808;51.240;6.794;2022-07-23T08:20:58;101456.00;;;26.90
5571;BMP180;2808;51.240;6.794;2022-07-23T08:23:26;101454.00;;;27.30
5571;BMP180;2808;51.240;6.794;2022-07-23T08:25:55;101455.00;;;27.60
5571;BMP180;2808;51.240;6.794;2022-07-23T08:28:23;101462.00;;;27.80
5571;BMP180;2808;51.240;6.794;2022-07-23T08:30:51;101462.00;;;27.90
5571;BMP180;2808;51.240;6.794;2022-07-23T08:33:19;101472.00;;;27.70
5571;BMP180;2808;51.240;6.794;2022-07-23T08:35:49;101474.00;;;27.60
5571;BMP180;2808;51.240;6.794;2022-07-23T08:38:20;101472.00;;;27.10
5571;BMP180;2808;51.240;6.794;2022-07-23T08:40:49;101470.00;;;26.80
5571;BMP180;2808;51.240;6.794;2022-07-23T08:43:18;101476.00;;;26.80
5571;BMP180;2808;51.240;6.794;2022-07-23T08:45:47;101472.00;;;26.60
5571;BMP180;2808;51.240;6.794;2022-07-23T08:48:19;101476.00;;;26.40
5571;BMP180;2808;51.240;6.794;2022-07-23T08:51:04;101477.00;;;26.00
5571;BMP180;2808;51.240;6.794;2022-07-23T08:53:34;101480.00;;;25.60
5571;BMP180;2808;51.240;6.794;2022-07-23T08:59:33;101475.00;;;25.80
5571;BMP180;2808;51.240;6.794;2022-07-23T09:02:10;101483.00;;;26.10
5571;BMP180;2808;51.240;6.794;2022-07-23T09:04:40;101480.00;;;26.20
5571;BMP180;2808;51.240;6.794;2022-07-23T09:07:14;101480.00;;;26.20
5571;BMP180;2808;51.240;6.794;2022-07-23T09:09:43;101485.00;;;26.10
5571;BMP180;2808;51.240;6.794;2022-07-23T09:12:11;101486.00;;;26.00
5571;BMP180;2808;51.240;6.794;2022-07-23T09:14:40;101475.00;;;26.00
5571;BMP180;2808;51.240;6.794;2022-07-23T09:17:11;101476.00;;;25.90
5571;BMP180;2808;51.240;6.794;2022-07-23T09:19:40;101483.00;;;25.70
5571;BMP180;2808;51.240;6.794;2022-07-23T09:22:22;101479.00;;;25.50
5571;BMP180;2808;51.240;6.794;2022-07-23T09:25:08;101468.00;;;25.80
5571;BMP180;2808;51.240;6.794;2022-07-23T09:27:53;101479.00;;;25.70
5571;BMP180;2808;51.240;6.794;2022-07-23T09:30:25;101478.00;;;25.40
5571;BMP180;2808;51.240;6.794;2022-07-23T09:33:06;101479.00;;;25.20
5571;BMP180;2808;51.240;6.794;2022-07-23T09:35:51;101479.00;;;25.10
5571;BMP180;2808;51.240;6.794;2022-07-23T09:38:22;101474.00;;;25.00
5571;BMP180;2808;51.240;6.794;2022-07-23T09:41:06;101481.00;;;25.10
5571;BMP180;2808;51.240;6.794;2022-07-23T09:43:34;101484.00;;;25.50
5571;BMP180;2808;51.240;6.794;2022-07-23T09:46:16;101490.00;;;25.60
5571;BMP180;2808;51.240;6.794;2022-07-23T09:48:44;101482.00;;;25.60
5571;BMP180;2808;51.240;6.794;2022-07-23T09:51:12;101488.00;;;25.60
5571;BMP180;2808;51.240;6.794;2022-07-23T09:53:41;101492.00;;;25.60
5571;BMP180;2808;51.240;6.794;2022-07-23T09:56:08;101493.00;;;25.60
5571;BMP180;2808;51.240;6.794;2022-07-23T09:58:39;101490.00;;;25.50
5571;BMP180;2808;51.240;6.794;2022-07-23T10:01:12;101486.00;;;25.40
5571;BMP180;2808;51.240;6.794;2022-07-23T10:03:41;101482.00;;;25.50
5571;BMP180;2808;51.240;6.794;2022-07-23T10:06:09;101486.00;;;25.70
5571;BMP180;2808;51.240;6.794;2022-07-23T10:08:41;101486.00;;;26.00
5571;BMP180;2808;51.240;6.794;2022-07-23T10:11:12;101483.00;;;26.20
5571;BMP180;2808;51.240;6.794;2022-07-23T10:13:41;101485.00;;;26.20
5571;BMP180;2808;51.240;6.794;2022-07-23T10:16:24;101479.00;;;26.00
5571;BMP180;2808;51.240;6.794;2022-07-23T10:18:52;101470.00;;;25.70
5571;BMP180;2808;51.240;6.794;2022-07-23T10:21:25;101463.00;;;25.50
5571;BMP180;2808;51.240;6.794;2022-07-23T10:24:10;101471.00;;;25.60
5571;BMP180;2808;51.240;6.794;2022-07-23T10:26:46;101466.00;;;25.80
5571;BMP180;2808;51.240;6.794;2022-07-23T10:29:28;101475.00;;;25.90
5571;BMP180;2808;51.240;6.794;2022-07-23T10:32:04;101466.00;;;25.90
5571;BMP180;2808;51.240;6.794;2022-07-23T10:34:41;101464.00;;;25.80
5571;BMP180;2808;51.240;6.794;2022-07-23T10:37:15;101463.00;;;25.70
5571;BMP180;2808;51.240;6.794;2022-07-23T10:39:48;101461.00;;;25.50
5571;BMP180;2808;51.240;6.794;2022-07-23T10:42:36;101464.00;;;25.60
5571;BMP180;2808;51.240;6.794;2022-07-23T10:45:23;101459.00;;;25.20
5571;BMP180;2808;51.240;6.794;2022-07-23T10:47:51;101465.00;;;25.10
5571;BMP180;2808;51.240;6.794;2022-07-23T10:50:20;101456.00;;;25.10
5571;BMP180;2808;51.240;6.794;2022-07-23T10:53:09;101457.00;;;25.20
5571;BMP180;2808;51.240;6.794;2022-07-23T10:55:53;101453.00;;;25.30
5571;BMP180;2808;51.240;6.794;2022-07-23T10:58:25;101457.00;;;25.40
5571;BMP180;2808;51.240;6.794;2022-07-23T11:01:31;101458.00;;;25.40
5571;BMP180;2808;51.240;6.794;2022-07-23T11:03:59;101451.00;;;25.30
5571;BMP180;2808;51.240;6.794;2022-07-23T11:09:28;101449.00;;;25.60
5571;BMP180;2808;51.240;6.794;2022-07-23T11:15:13;101461.00;;;25.90
5571;BMP180;2808;51.240;6.794;2022-07-23T11:17:59;101464.00;;;25.90
5571;BMP180;2808;51.240;6.794;2022-07-23T11:20:27;101452.00;;;25.90
5571;BMP180;2808;51.240;6.794;2022-07-23T11:22:56;101459.00;;;25.90
5571;BMP180;2808;51.240;6.794;2022-07-23T11:25:33;101457.00;;;25.90
5571;BMP180;2808;51.240;6.794;2022-07-23T11:28:15;101455.00;;;25.80
5571;BMP180;2808;51.240;6.794;2022-07-23T11:30:45;101460.00;;;25.70
5571;BMP180;2808;51.240;6.794;2022-07-23T11:33:19;101462.00;;;25.70
5571;BMP180;2808;51.240;6.794;2022-07-23T11:35:48;101462.00;;;25.70
5571;BMP180;2808;51.240;6.794;2022-07-23T11:38:17;101468.00;;;25.90
5571;BMP180;2808;51.240;6.794;2022-07-23T11:40:48;101461.00;;;25.80
5571;BMP180;2808;51.240;6.794;2022-07-23T11:43:16;101449.00;;;25.90
5571;BMP180;2808;51.240;6.794;2022-07-23T11:45:47;101454.00;;;25.90
5571;BMP180;2808;51.240;6.794;2022-07-23T11:48:19;101458.00;;;25.90
5571;BMP180;2808;51.240;6.794;2022-07-23T11:50:47;101456.00;;;25.70
5571;BMP180;2808;51.240;6.794;2022-07-23T11:53:28;101453.00;;;25.70
5571;BMP180;2808;51.240;6.794;2022-07-23T11:56:04;101453.00;;;25.70
5571;BMP180;2808;51.240;6.794;2022-07-23T11:58:31;101459.00;;;25.80
5571;BMP180;2808;51.240;6.794;2022-07-23T12:01:00;101454.00;;;25.80
5571;BMP180;2808;51.240;6.794;2022-07-23T12:03:28;101448.00;;;25.80
5571;BMP180;2808;51.240;6.794;2022-07-23T12:05:57;101447.00;;;26.00
5571;BMP180;2808;51.240;6.794;2022-07-23T12:08:25;101449.00;;;26.10
5571;BMP180;2808;51.240;6.794;2022-07-23T12:10:53;101452.00;;;26.10
5571;BMP180;2808;51.240;6.794;2022-07-23T12:13:21;101447.00;;;26.00
5571;BMP180;2808;51.240;6.794;2022-07-23T12:15:51;101446.00;;;26.00
5571;BMP180;2808;51.240;6.794;2022-07-23T12:18:22;101455.00;;;25.90
5571;BMP180;2808;51.240;6.794;2022-07-23T12:20:52;101447.00;;;25.90
5571;BMP180;2808;51.240;6.794;2022-07-23T12:23:21;101445.00;;;25.80
5571;BMP180;2808;51.240;6.794;2022-07-23T12:25:51;101454.00;;;25.70
5571;BMP180;2808;51.240;6.794;2022-07-23T12:28:21;101450.00;;;25.40
5571;BMP180;2808;51.240;6.794;2022-07-23T12:30:50;101444.00;;;25.20
5571;BMP180;2808;51.240;6.794;2022-07-23T12:33:24;101446.00;;;25.20
5571;BMP180;2808;51.240;6.794;2022-07-23T12:35:53;101450.00;;;25.20
5571;BMP180;2808;51.240;6.794;2022-07-23T12:38:22;101458.00;;;25.20
5571;BMP180;2808;51.240;6.794;2022-07-23T12:40:53;101457.00;;;25.10
5571;BMP180;2808;51.240;6.794;2022-07-23T12:43:23;101455.00;;;24.70
5571;BMP180;2808;51.240;6.794;2022-07-23T12:45:52;101452.00;;;24.80
5571;BMP180;2808;51.240;6.794;2022-07-23T12:48:26;101456.00;;;24.80
5571;BMP180;2808;51.240;6.794;2022-07-23T12:50:55;101462.00;;;24.80
5571;BMP180;2808;51.240;6.794;2022-07-23T12:53:37;101458.00;;;25.00
5571;BMP180;2808;51.240;6.794;2022-07-23T12:56:07;101458.00;;;25.00
5571;BMP180;2808;51.240;6.794;2022-07-23T12:58:44;101468.00;;;25.20
5571;BMP180;2808;51.240;6.794;2022-07-23T13:01:24;101460.00;;;25.20
5571;BMP180;2808;51.240;6.794;2022-07-23T13:04:02;101468.00;;;25.30
5571;BMP180;2808;51.240;6.794;2022-07-23T13:06:33;101460.00;;;25.30
5571;BMP180;2808;51.240;6.794;2022-07-23T13:09:02;101472.00;;;25.40
5571;BMP180;2808;51.240;6.794;2022-07-23T13:11:30;101462.00;;;25.50
5571;BMP180;2808;51.240;6.794;2022-07-23T13:13:58;101473.00;;;25.60
5571;BMP180;2808;51.240;6.794;2022-07-23T13:16:26;101468.00;;;25.80
5571;BMP180;2808;51.240;6.794;2022-07-23T13:18:56;101464.00;;;25.90
5571;BMP180;2808;51.240;6.794;2022-07-23T13:21:25;101470.00;;;26.00
5571;BMP180;2808;51.240;6.794;2022-07-23T13:23:53;101468.00;;;26.00
5571;BMP180;2808;51.240;6.794;2022-07-23T13:26:23;101473.00;;;26.10
5571;BMP180;2808;51.240;6.794;2022-07-23T13:28:54;101472.00;;;26.00
5571;BMP180;2808;51.240;6.794;2022-07-23T13:31:24;101466.00;;;25.90
5571;BMP180;2808;51.240;6.794;2022-07-23T13:33:51;101458.00;;;25.90
5571;BMP180;2808;51.240;6.794;2022-07-23T13:36:19;101458.00;;;26.10
5571;BMP180;2808;51.240;6.794;2022-07-23T13:38:48;101454.00;;;26.30
5571;BMP180;2808;51.240;6.794;2022-07-23T13:41:17;101453.00;;;26.40
5571;BMP180;2808;51.240;6.794;2022-07-23T13:43:44;101448.00;;;26.50
5571;BMP180;2808;51.240;6.794;2022-07-23T13:46:16;101449.00;;;26.50
5571;BMP180;2808;51.240;6.794;2022-07-23T13:48:44;101447.00;;;26.50
5571;BMP180;2808;51.240;6.794;2022-07-23T13:51:14;101447.00;;;26.60
5571;BMP180;2808;51.240;6.794;2022-07-23T13:53:44;101445.00;;;26.50
5571;BMP180;2808;51.240;6.794;2022-07-23T13:56:14;101442.00;;;26.50
5571;BMP180;2808;51.240;6.794;2022-07-23T13:58:44;101438.00;;;26.30
5571;BMP180;2808;51.240;6.794;2022-07-23T14:01:14;101434.00;;;26.20
5571;BMP180;2808;51.240;6.794;2022-07-23T14:03:41;101435.00;;;26.10
5571;BMP180;2808;51.240;6.794;2022-07-23T14:06:09;101432.00;;;26.00
5571;BMP180;2808;51.240;6.794;2022-07-23T14:08:36;101432.00;;;26.00
5571;BMP180;2808;51.240;6.794;2022-07-23T14:11:04;101436.00;;;26.00
5571;BMP180;2808;51.240;6.794;2022-07-23T14:13:33;101436.00;;;26.00
5571;BMP180;2808;51.240;6.794;2022-07-23T14:16:00;101434.00;;;26.00
5571;BMP180;2808;51.240;6.794;2022-07-23T14:18:28;101439.00;;;26.00
5571;BMP180;2808;51.240;6.794;2022-07-23T14:20:55;101435.00;;;26.00
5571;BMP180;2808;51.240;6.794;2022-07-23T14:23:23;101438.00;;;26.10
5571;BMP180;2808;51.240;6.794;2022-07-23T14:25:51;101430.00;;;26.20
5571;BMP180;2808;51.240;6.794;2022-07-23T14:28:18;101436.00;;;26.20
5571;BMP180;2808;51.240;6.794;2022-07-23T14:30:48;101429.00;;;26.20
5571;BMP180;2808;51.240;6.794;2022-07-23T14:33:15;101431.00;;;26.30
5571;BMP180;2808;51.240;6.794;2022-07-23T14:35:43;101437.00;;;26.20
5571;BMP180;2808;51.240;6.794;2022-07-23T14:38:11;101438.00;;;26.20
5571;BMP180;2808;51.240;6.794;2022-07-23T14:40:38;101425.00;;;26.10
5571;BMP180;2808;51.240;6.794;2022-07-23T14:43:05;101431.00;;;25.90
5571;BMP180;2808;51.240;6.794;2022-07-23T14:45:33;101430.00;;;25.90
5571;BMP180;2808;51.240;6.794;2022-07-23T14:48:02;101426.00;;;25.90
5571;BMP180;2808;51.240;6.794;2022-07-23T14:50:30;101429.00;;;25.90
5571;BMP180;2808;51.240;6.794;2022-07-23T14:52:57;101430.00;;;25.90
5571;BMP180;2808;51.240;6.794;2022-07-23T14:55:25;101433.00;;;25.80
5571;BMP180;2808;51.240;6.794;2022-07-23T14:57:52;101425.00;;;25.80